createdAt,value
2022-08-07T00:02:35.800Z,0.1
2022-08-07T00:07:14.034Z,0.1
2022-08-07T00:12:17.660Z,0.1
2022-08-07T00:17:14.003Z,0.12
2022-08-07T00:22:14.007Z,0.18
2022-08-07T00:27:13.994Z,0.07
2022-08-07T00:32:13.983Z,0.1
2022-08-07T00:37:14.013Z,0.03
2022-08-07T00:42:13.990Z,0.12
2022-08-07T00:47:15.735Z,0.06
2022-08-07T00:52:13.989Z,0.05
2022-08-07T00:57:13.990Z,0.08
2022-08-07T01:02:28.244Z,0.06
2022-08-07T01:07:14.033Z,0.01
2022-08-07T01:12:28.184Z,0.09
2022-08-07T01:17:14.027Z,0.09
2022-08-07T01:22:16.268Z,0.08
2022-08-07T01:27:19.272Z,0.11
2022-08-07T01:32:14.022Z,0.07
2022-08-07T01:37:14.042Z,0.05
2022-08-07T01:42:37.256Z,0.09
2022-08-07T01:47:14.270Z,0.06
2022-08-07T01:52:15.406Z,0.08
2022-08-07T01:57:20.587Z,0.02
2022-08-07T02:02:33.090Z,0
2022-08-07T02:07:14.043Z,0
2022-08-07T02:12:14.043Z,0.16
2022-08-07T02:17:16.494Z,0.05
2022-08-07T02:22:14.033Z,0
2022-08-07T02:27:14.053Z,0.07
2022-08-07T02:32:14.043Z,0
2022-08-07T02:37:14.083Z,0.01
2022-08-07T02:42:14.920Z,0.08
2022-08-07T02:47:19.138Z,0
2022-08-07T02:52:14.046Z,0
2022-08-07T02:57:14.071Z,0
2022-08-07T03:02:14.086Z,0
2022-08-07T03:07:14.065Z,0
2022-08-07T03:12:22.124Z,0
2022-08-07T03:17:14.056Z,0
2022-08-07T03:22:18.645Z,0
2022-08-07T03:27:14.053Z,0.01
2022-08-07T03:32:14.047Z,0
2022-08-07T03:37:14.066Z,0.05
2022-08-07T03:42:14.105Z,0.01
2022-08-07T03:47:14.676Z,0
2022-08-07T03:52:15.915Z,0
2022-08-07T03:58:09.098Z,0.02
2022-08-07T04:02:14.261Z,0.05
2022-08-07T04:07:16.652Z,0.02
2022-08-07T04:12:26.176Z,0.06
2022-08-07T04:17:16.572Z,0.09
2022-08-07T04:22:17.297Z,0.02
2022-08-07T04:27:15.457Z,0.01
2022-08-07T04:32:14.095Z,0
2022-08-07T04:37:15.365Z,0.08
2022-08-07T04:42:14.091Z,0.1
2022-08-07T04:47:23.407Z,0.05
2022-08-07T04:52:14.118Z,0
2022-08-07T04:58:08.340Z,0
2022-08-07T05:02:16.757Z,0
2022-08-07T05:07:19.896Z,0
2022-08-07T05:12:15.502Z,0.05
2022-08-07T05:17:14.110Z,0.04
2022-08-07T05:22:19.135Z,0
2022-08-07T05:27:14.603Z,0
2022-08-07T05:32:14.128Z,0
2022-08-07T05:37:14.104Z,0.02
2022-08-07T05:42:14.145Z,0.01
2022-08-07T05:47:17.937Z,0.05
2022-08-07T05:52:14.118Z,0
2022-08-07T05:57:14.129Z,0.04
2022-08-07T06:02:15.991Z,0
2022-08-07T06:07:22.876Z,0
2022-08-07T06:12:15.246Z,0.01
2022-08-07T06:17:14.155Z,0
2022-08-07T06:22:16.494Z,0
2022-08-07T06:27:14.136Z,0
2022-08-07T06:32:14.132Z,0
2022-08-07T06:37:16.994Z,0
2022-08-07T06:42:14.246Z,0.03
2022-08-07T06:47:15.435Z,0
2022-08-07T06:52:14.133Z,0.05
2022-08-07T06:57:14.144Z,0.1
2022-08-07T07:02:14.289Z,0.14
2022-08-07T07:07:19.521Z,0
2022-08-07T07:12:19.769Z,0
2022-08-07T07:17:16.090Z,0.05
2022-08-07T07:22:32.218Z,0
2022-08-07T07:27:14.296Z,0.01
2022-08-07T07:32:14.377Z,0
2022-08-07T07:37:15.046Z,0.03
2022-08-07T07:42:17.411Z,0
2022-08-07T07:47:23.168Z,0
2022-08-07T07:52:15.773Z,0.03
2022-08-07T07:57:14.129Z,0.01
2022-08-07T08:02:22.810Z,0
2022-08-07T08:07:14.182Z,0.02
2022-08-07T08:12:22.643Z,0
2022-08-07T08:17:32.500Z,0
2022-08-07T08:22:14.188Z,0.03
2022-08-07T08:27:14.199Z,0
2022-08-07T08:32:17.700Z,0.05
2022-08-07T08:38:00.135Z,0.02
2022-08-07T08:42:14.211Z,0
2022-08-07T08:47:14.237Z,0
2022-08-07T08:52:16.389Z,0
2022-08-07T08:57:14.202Z,0.09
2022-08-07T09:02:14.285Z,0.09
2022-08-07T09:07:14.203Z,0.09
2022-08-07T09:12:20.434Z,0.07
2022-08-07T09:17:14.380Z,0.1
2022-08-07T09:22:23.312Z,0.1
2022-08-07T09:27:14.239Z,0.1
2022-08-07T09:32:17.348Z,0.08
2022-08-07T09:37:14.216Z,0.1
2022-08-07T09:42:17.103Z,0.1
2022-08-07T09:47:26.919Z,0.1
2022-08-07T09:52:15.590Z,0.1
2022-08-07T09:57:14.209Z,0.17
2022-08-07T10:02:14.268Z,0.1
2022-08-07T10:07:24.229Z,0.1
2022-08-07T10:12:19.807Z,0.14
2022-08-07T10:17:16.735Z,0.13
2022-08-07T10:22:17.063Z,0.17
2022-08-07T10:27:15.637Z,0.15
2022-08-07T10:32:31.613Z,0.12
2022-08-07T10:37:14.241Z,0.17
2022-08-07T10:42:20.734Z,0.19
2022-08-07T10:47:14.388Z,0.21
2022-08-07T10:52:14.246Z,0.2
2022-08-07T10:57:14.212Z,0.19
2022-08-07T11:02:27.410Z,0.24
2022-08-07T11:07:14.815Z,0.21
2022-08-07T11:12:14.228Z,0.3
2022-08-07T11:17:14.252Z,0.21
2022-08-07T11:22:18.999Z,0.18
2022-08-07T11:27:14.221Z,0.3
2022-08-07T11:32:14.261Z,0.28
2022-08-07T11:37:14.257Z,0.2
2022-08-07T11:42:16.937Z,0.3
2022-08-07T11:47:14.222Z,0.26
2022-08-07T11:52:14.225Z,0.27
2022-08-07T11:57:14.397Z,0.31
2022-08-07T12:02:17.843Z,0.28
2022-08-07T12:07:18.877Z,0.29
2022-08-07T12:12:14.292Z,0.29
2022-08-07T12:17:19.647Z,0.25
2022-08-07T12:22:36.837Z,0.3
2022-08-07T12:27:16.090Z,0.31
2022-08-07T12:32:14.279Z,0.3
2022-08-07T12:37:16.728Z,0.32
2022-08-07T12:42:14.278Z,0.31
2022-08-07T12:47:14.268Z,0.22
2022-08-07T12:52:17.875Z,0.32
2022-08-07T12:57:16.514Z,0.37
2022-08-07T13:02:14.255Z,0.3
2022-08-07T13:07:17.906Z,0.4
2022-08-07T13:12:15.286Z,0.34
2022-08-07T13:17:14.285Z,0.28
2022-08-07T13:22:20.097Z,0.29
2022-08-07T13:27:14.295Z,0.4
2022-08-07T13:32:23.592Z,0.36
2022-08-07T13:37:19.696Z,0.31
2022-08-07T13:42:14.307Z,0.46
2022-08-07T13:47:15.147Z,0.41
2022-08-07T13:52:23.197Z,0.38
2022-08-07T13:57:14.448Z,0.3
2022-08-07T14:02:14.321Z,0.49
2022-08-07T14:07:14.356Z,0.41
2022-08-07T14:12:14.293Z,0.37
2022-08-07T14:17:51.698Z,0.37
2022-08-07T14:22:18.504Z,0.45
2022-08-07T14:27:16.324Z,0.18
2022-08-07T14:32:14.377Z,0.48
2022-08-07T14:37:16.221Z,0.27
2022-08-07T14:42:19.141Z,0.37
2022-08-07T14:47:16.471Z,0.57
2022-08-07T14:52:16.749Z,0.57
2022-08-07T14:57:14.478Z,0.37
2022-08-07T15:02:31.578Z,0.56
2022-08-07T15:07:17.657Z,0.6
2022-08-07T15:12:25.776Z,0.56
2022-08-07T15:17:14.428Z,0.67
2022-08-07T15:27:15.355Z,0.48
2022-08-07T15:32:14.419Z,0.52
2022-08-07T15:37:14.343Z,0.46
2022-08-07T15:42:45.333Z,0.58
2022-08-07T15:47:16.753Z,0.42
2022-08-07T15:52:17.154Z,0.41
2022-08-07T15:57:28.463Z,0.49
2022-08-07T16:02:15.154Z,0.53
2022-08-07T16:08:28.604Z,0.42
2022-08-07T16:12:14.355Z,0.45
2022-08-07T16:17:15.248Z,0.42
2022-08-07T16:22:31.744Z,0.52
2022-08-07T16:27:18.462Z,0.43
2022-08-07T16:32:33.365Z,0.5
2022-08-07T16:38:05.060Z,0.43
2022-08-07T16:42:14.883Z,0.5
2022-08-07T16:47:18.783Z,0.46
2022-08-07T16:52:48.776Z,0.5
2022-08-07T16:57:15.643Z,0.44
2022-08-07T17:02:14.452Z,0.36
2022-08-07T17:07:14.375Z,0.38
2022-08-07T17:12:33.710Z,0.38
2022-08-07T17:17:14.446Z,0.35
2022-08-07T17:22:14.458Z,0.39
2022-08-07T17:27:19.725Z,0.51
2022-08-07T17:32:30.244Z,0.34
2022-08-07T17:38:05.227Z,0.51
2022-08-07T17:42:14.419Z,0.44
2022-08-07T17:47:16.689Z,0.41
2022-08-07T17:52:14.387Z,0.31
2022-08-07T17:57:18.641Z,0.39
2022-08-07T18:02:14.621Z,0.45
2022-08-07T18:07:19.678Z,0.39
2022-08-07T18:12:20.055Z,0.4
2022-08-07T18:17:14.444Z,0.41
2022-08-07T18:22:15.001Z,0.46
2022-08-07T18:27:17.224Z,0.49
2022-08-07T18:32:16.087Z,0.41
2022-08-07T18:37:14.550Z,0.32
2022-08-07T18:42:14.428Z,0.39
2022-08-07T18:47:21.138Z,0.27
2022-08-07T18:52:25.925Z,0.34
2022-08-07T18:57:29.962Z,0.33
2022-08-07T19:02:19.578Z,0.33
2022-08-07T19:07:14.443Z,0.36
2022-08-07T19:12:14.437Z,0.28
2022-08-07T19:17:57.280Z,0.27
2022-08-07T19:22:14.864Z,0.32
2022-08-07T19:28:31.106Z,0.33
2022-08-07T19:32:17.262Z,0.34
2022-08-07T19:37:17.184Z,0.43
2022-08-07T19:42:22.680Z,0.35
2022-08-07T19:47:14.522Z,0.41
2022-08-07T19:52:17.304Z,0.49
2022-08-07T19:57:52.749Z,0.34
2022-08-07T20:02:19.430Z,0.33
2022-08-07T20:07:14.481Z,0.33
2022-08-07T20:12:23.111Z,0.38
2022-08-07T20:17:14.474Z,0.38
2022-08-07T20:22:14.498Z,0.31
2022-08-07T20:27:14.541Z,0.37
2022-08-07T20:32:22.511Z,0.31
2022-08-07T20:37:15.064Z,0.29
2022-08-07T20:42:14.481Z,0.3
2022-08-07T20:47:14.471Z,0.25
2022-08-07T20:52:16.783Z,0.39
2022-08-07T20:57:14.479Z,0.33
2022-08-07T21:02:23.118Z,0.18
2022-08-07T21:07:19.354Z,0.34
2022-08-07T21:12:15.061Z,0.35
2022-08-07T21:18:01.614Z,0.3
2022-08-07T21:22:14.733Z,0.33
2022-08-07T21:27:14.536Z,0.29
2022-08-07T21:32:42.186Z,0.3
2022-08-07T21:37:14.577Z,0.27
2022-08-07T21:42:37.368Z,0.26
2022-08-07T21:47:17.226Z,0.27
2022-08-07T21:52:16.450Z,0.23
2022-08-07T21:57:16.200Z,0.26
2022-08-07T22:02:14.614Z,0.18
2022-08-07T22:07:14.537Z,0.2
2022-08-07T22:12:14.743Z,0.21
2022-08-07T22:17:14.540Z,0.16
2022-08-07T22:22:18.253Z,0.2
2022-08-07T22:27:15.946Z,0.32
2022-08-07T22:32:20.247Z,0.22
2022-08-07T22:37:14.538Z,0.21
2022-08-07T22:42:19.182Z,0.33
2022-08-07T22:47:14.997Z,0.29
2022-08-07T22:52:19.485Z,0.3
2022-08-07T22:57:14.562Z,0.24
2022-08-07T23:02:14.560Z,0.19
2022-08-07T23:07:18.530Z,0.17
2022-08-07T23:12:20.891Z,0.27
2022-08-07T23:17:15.780Z,0.21
2022-08-07T23:22:14.580Z,0.22
2022-08-07T23:27:14.568Z,0.21
2022-08-07T23:32:50.382Z,0.2
2022-08-07T23:37:18.640Z,0.21
2022-08-07T23:42:15.583Z,0.27
2022-08-07T23:47:14.542Z,0.2
2022-08-07T23:52:59.119Z,0.22
2022-08-07T23:57:14.576Z,0.2
